Century CRJ2 at Managua on Oct 15th 2022, runway excursion on landing

Last Update: October 16, 2022 / 14:34:22 GMT/Zulu time

Bookmark this article
Incident Facts

Date of incident
Oct 15, 2022

Classification
Incident

Flight number
Y2-754

Aircraft Registration
HI1058

ICAO Type Designator
CRJ2

Airport ICAO Code
MNMG

An Air Century Canadair CRJ-200, registration HI1058 performing flight Y2-754 from Santo Domingo (Dominican Republic) to Managua (Nicaragua) with 59 people on board, landed on Manaugua's runway 10 at about 17:00L (23:00Z) but veered right and came to a stop with all gear on soft ground. There were no injuries, the aircraft received no damage.

The airport was closed for about 2 hours until the aircraft was moved off the runway.

The aircraft is still on the ground in Managua about 15.5 hours after landing.

Related NOTAM:
A1744/22 NOTAMN
Q) MHCC/QMRLC/IV/NBO/A/000/999/1208N08610W005
A) MNMG B) 2210152320 C) 2210160200
E) RWY10/28 CLSD

Metars:
MNMG 160100Z 16006KT 9999 FEW021 SCT070 25/25 Q1010 A2984 NOSIG=
MNMG 160000Z 15006KT 9999 FEW020CB SCT070 25/24 Q1009 A2981 CB/SE/SW/W/NW NOSIG=
MNMG 152300Z 14006KT 9999 FEW020CB SCT070 25/24 Q1009 A2980 RETSRA CB/SE/S/SW/W/NW NOSIG=
MNMG 152218Z 11008KT 9000 -TSRA FEW020CB SCT070 CB 4/C=
MNMG 152200Z 10008KT 9000 TS FEW020CB SCT070 27/25 Q1008 A2978 CB 4/C RA/E/SE BECMG -DZ=
MNMG 152115Z 05010KT 9000 -DZ FEW020CB SCT025 CB 4/C=
MNMG 152100Z 06008KT 9000 VCRA FEW020CB SCT025 28/25 Q1008 A2977 CB 4/C RA/N/NE RETS 1AC070 1CI300 BECMG -DZ=
MNMG 152000Z 05006KT 9000 -TS FEW020CB SCT025 26/25 Q1008 A2979 CB 4/C RA/SW/W BECMG -TSRA=
Incident Facts

Date of incident
Oct 15, 2022

Classification
Incident

Flight number
Y2-754

Aircraft Registration
HI1058

ICAO Type Designator
CRJ2

Airport ICAO Code
MNMG

This article is published under license from Avherald.com. © of text by Avherald.com.
Article source

You can read 2 more free articles without a subscription.

Subscribe now and continue reading without any limits!

Are you a subscriber? Login
Subscribe

Read unlimited articles and receive our daily update briefing. Gain better insights into what is happening in commercial aviation safety.

Free newsletter

Want to know more and stay ahead? Get our free weekly newsletter and join 5591 existing subscribers.

By subscribing, you accept our terms and conditions and confirm that you've read our privacy policy.

Send tip

Support AeroInside by sending a small tip amount.

Newest articles

Subscribe today

Are you researching aviation incidents? Get access to AeroInside Insights, unlimited read access and receive the daily newsletter.

Pick your plan and subscribe

Partner

Blockaviation logo

A new way to document and demonstrate airworthiness compliance and aircraft value. Find out more.

Virtual Speech logo

ELITE Simulation Solutions is a leading global provider of Flight Simulation Training Devices, IFR training software as well as flight controls and related services. Find out more.

Get updates

Never miss an article from AeroInside. Subscribe to our free weekly newsletter and join 5591 existing subscribers.

By subscribing, you accept our terms and conditions and that you've read our privacy policy.

AeroInside Blog
Popular aircraft
Airbus A320
Boeing 737-800
Boeing 737-800 MAX
Popular airlines
American Airlines
United
Delta
Air Canada
Lufthansa
British Airways